sensor_id;sensor_type;location;lat;lon;timestamp;P1;durP1;ratioP1;P2;durP2;ratioP2
12314;SDS011;23886;46.614;14.276;2023-06-14T00:00:36;9.70;;;8.90;;
12314;SDS011;23886;46.614;14.276;2023-06-14T00:05:38;9.07;;;8.37;;
12314;SDS011;23886;46.614;14.276;2023-06-14T00:08:09;10.43;;;9.43;;
12314;SDS011;23886;46.614;14.276;2023-06-14T00:10:36;10.10;;;9.20;;
12314;SDS011;23886;46.614;14.276;2023-06-14T00:13:10;9.90;;;9.10;;
12314;SDS011;23886;46.614;14.276;2023-06-14T00:15:38;10.20;;;9.30;;
12314;SDS011;23886;46.614;14.276;2023-06-14T00:18:06;9.97;;;9.00;;
12314;SDS011;23886;46.614;14.276;2023-06-14T00:20:35;9.40;;;8.60;;
12314;SDS011;23886;46.614;14.276;2023-06-14T00:23:03;10.00;;;9.17;;
12314;SDS011;23886;46.614;14.276;2023-06-14T00:25:34;10.43;;;9.53;;
12314;SDS011;23886;46.614;14.276;2023-06-14T00:28:02;9.83;;;9.03;;
12314;SDS011;23886;46.614;14.276;2023-06-14T00:30:30;10.77;;;9.87;;
12314;SDS011;23886;46.614;14.276;2023-06-14T00:32:57;10.20;;;9.30;;
12314;SDS011;23886;46.614;14.276;2023-06-14T00:35:24;9.73;;;8.73;;
12314;SDS011;23886;46.614;14.276;2023-06-14T00:37:51;9.73;;;8.77;;
12314;SDS011;23886;46.614;14.276;2023-06-14T00:40:20;10.20;;;9.30;;
12314;SDS011;23886;46.614;14.276;2023-06-14T00:42:49;10.87;;;9.87;;
12314;SDS011;23886;46.614;14.276;2023-06-14T00:45:17;11.37;;;10.40;;
12314;SDS011;23886;46.614;14.276;2023-06-14T00:47:45;10.67;;;9.73;;
12314;SDS011;23886;46.614;14.276;2023-06-14T00:50:14;10.90;;;9.80;;
12314;SDS011;23886;46.614;14.276;2023-06-14T00:52:41;10.57;;;9.57;;
12314;SDS011;23886;46.614;14.276;2023-06-14T00:55:08;11.47;;;10.13;;
12314;SDS011;23886;46.614;14.276;2023-06-14T00:57:36;11.63;;;10.23;;
12314;SDS011;23886;46.614;14.276;2023-06-14T01:00:07;10.57;;;9.57;;
12314;SDS011;23886;46.614;14.276;2023-06-14T01:02:35;9.97;;;8.97;;
12314;SDS011;23886;46.614;14.276;2023-06-14T01:05:03;9.83;;;8.40;;
12314;SDS011;23886;46.614;14.276;2023-06-14T01:07:33;9.73;;;8.83;;
12314;SDS011;23886;46.614;14.276;2023-06-14T01:10:16;9.50;;;8.50;;
12314;SDS011;23886;46.614;14.276;2023-06-14T01:12:56;9.37;;;8.57;;
12314;SDS011;23886;46.614;14.276;2023-06-14T01:15:30;9.37;;;8.47;;
12314;SDS011;23886;46.614;14.276;2023-06-14T01:17:58;9.90;;;8.90;;
12314;SDS011;23886;46.614;14.276;2023-06-14T01:20:28;11.57;;;8.90;;
12314;SDS011;23886;46.614;14.276;2023-06-14T01:22:57;10.30;;;9.30;;
12314;SDS011;23886;46.614;14.276;2023-06-14T01:25:24;10.63;;;9.53;;
12314;SDS011;23886;46.614;14.276;2023-06-14T01:27:53;9.20;;;8.40;;
12314;SDS011;23886;46.614;14.276;2023-06-14T01:30:24;10.13;;;8.67;;
12314;SDS011;23886;46.614;14.276;2023-06-14T01:32:57;9.70;;;8.60;;
12314;SDS011;23886;46.614;14.276;2023-06-14T01:35:24;9.50;;;8.50;;
12314;SDS011;23886;46.614;14.276;2023-06-14T01:37:52;9.40;;;8.50;;
12314;SDS011;23886;46.614;14.276;2023-06-14T01:40:24;9.80;;;8.90;;
12314;SDS011;23886;46.614;14.276;2023-06-14T01:42:52;10.47;;;9.30;;
12314;SDS011;23886;46.614;14.276;2023-06-14T01:45:20;9.30;;;8.47;;
12314;SDS011;23886;46.614;14.276;2023-06-14T01:47:48;12.47;;;9.17;;
12314;SDS011;23886;46.614;14.276;2023-06-14T01:50:16;9.63;;;8.63;;
12314;SDS011;23886;46.614;14.276;2023-06-14T01:52:47;10.97;;;8.43;;
12314;SDS011;23886;46.614;14.276;2023-06-14T01:55:14;12.10;;;8.70;;
12314;SDS011;23886;46.614;14.276;2023-06-14T01:57:45;10.10;;;9.20;;
12314;SDS011;23886;46.614;14.276;2023-06-14T02:00:14;10.37;;;9.27;;
12314;SDS011;23886;46.614;14.276;2023-06-14T02:02:44;10.07;;;9.17;;
12314;SDS011;23886;46.614;14.276;2023-06-14T02:05:12;10.27;;;9.27;;
12314;SDS011;23886;46.614;14.276;2023-06-14T02:07:40;9.93;;;8.93;;
12314;SDS011;23886;46.614;14.276;2023-06-14T02:10:07;14.03;;;8.93;;
12314;SDS011;23886;46.614;14.276;2023-06-14T02:12:42;10.87;;;9.87;;
12314;SDS011;23886;46.614;14.276;2023-06-14T02:15:11;10.37;;;9.47;;
12314;SDS011;23886;46.614;14.276;2023-06-14T02:17:44;13.93;;;9.90;;
12314;SDS011;23886;46.614;14.276;2023-06-14T02:20:14;12.13;;;9.00;;
12314;SDS011;23886;46.614;14.276;2023-06-14T02:22:42;10.90;;;9.90;;
12314;SDS011;23886;46.614;14.276;2023-06-14T02:25:09;12.80;;;10.67;;
12314;SDS011;23886;46.614;14.276;2023-06-14T02:27:35;13.90;;;10.53;;
12314;SDS011;23886;46.614;14.276;2023-06-14T02:30:03;10.50;;;9.50;;
12314;SDS011;23886;46.614;14.276;2023-06-14T02:32:39;11.10;;;9.90;;
12314;SDS011;23886;46.614;14.276;2023-06-14T02:35:08;12.13;;;11.03;;
12314;SDS011;23886;46.614;14.276;2023-06-14T02:37:35;12.43;;;11.27;;
12314;SDS011;23886;46.614;14.276;2023-06-14T02:40:04;11.27;;;10.27;;
12314;SDS011;23886;46.614;14.276;2023-06-14T02:42:32;11.97;;;10.77;;
12314;SDS011;23886;46.614;14.276;2023-06-14T02:45:00;11.13;;;10.13;;
12314;SDS011;23886;46.614;14.276;2023-06-14T02:47:28;10.33;;;9.30;;
12314;SDS011;23886;46.614;14.276;2023-06-14T02:49:56;10.43;;;9.40;;
12314;SDS011;23886;46.614;14.276;2023-06-14T02:52:23;13.87;;;9.83;;
12314;SDS011;23886;46.614;14.276;2023-06-14T02:54:51;10.83;;;9.83;;
12314;SDS011;23886;46.614;14.276;2023-06-14T02:57:20;12.27;;;9.40;;
12314;SDS011;23886;46.614;14.276;2023-06-14T02:59:50;12.57;;;9.20;;
12314;SDS011;23886;46.614;14.276;2023-06-14T03:02:24;10.10;;;9.10;;
12314;SDS011;23886;46.614;14.276;2023-06-14T03:04:52;10.60;;;9.37;;
12314;SDS011;23886;46.614;14.276;2023-06-14T03:07:22;9.97;;;9.13;;
12314;SDS011;23886;46.614;14.276;2023-06-14T03:09:50;10.33;;;9.10;;
12314;SDS011;23886;46.614;14.276;2023-06-14T03:12:17;10.77;;;9.60;;
12314;SDS011;23886;46.614;14.276;2023-06-14T03:14:46;9.83;;;8.97;;
12314;SDS011;23886;46.614;14.276;2023-06-14T03:17:13;10.57;;;9.50;;
12314;SDS011;23886;46.614;14.276;2023-06-14T03:19:42;11.00;;;10.00;;
12314;SDS011;23886;46.614;14.276;2023-06-14T03:22:09;10.57;;;9.73;;
12314;SDS011;23886;46.614;14.276;2023-06-14T03:24:38;11.70;;;9.33;;
12314;SDS011;23886;46.614;14.276;2023-06-14T03:27:06;10.30;;;9.30;;
12314;SDS011;23886;46.614;14.276;2023-06-14T03:29:36;10.60;;;9.50;;
12314;SDS011;23886;46.614;14.276;2023-06-14T03:32:03;10.17;;;9.13;;
12314;SDS011;23886;46.614;14.276;2023-06-14T03:34:30;11.17;;;9.90;;
12314;SDS011;23886;46.614;14.276;2023-06-14T03:37:01;10.83;;;9.87;;
12314;SDS011;23886;46.614;14.276;2023-06-14T03:39:28;11.33;;;10.30;;
12314;SDS011;23886;46.614;14.276;2023-06-14T03:41:56;12.20;;;11.10;;
12314;SDS011;23886;46.614;14.276;2023-06-14T03:44:29;11.63;;;10.73;;
12314;SDS011;23886;46.614;14.276;2023-06-14T03:46:57;11.87;;;10.77;;
12314;SDS011;23886;46.614;14.276;2023-06-14T03:49:25;12.17;;;10.87;;
12314;SDS011;23886;46.614;14.276;2023-06-14T03:51:52;11.30;;;10.40;;
12314;SDS011;23886;46.614;14.276;2023-06-14T03:54:21;11.77;;;10.70;;
12314;SDS011;23886;46.614;14.276;2023-06-14T03:56:49;12.03;;;10.97;;
12314;SDS011;23886;46.614;14.276;2023-06-14T03:59:17;11.63;;;10.63;;
12314;SDS011;23886;46.614;14.276;2023-06-14T04:01:45;10.43;;;9.43;;
12314;SDS011;23886;46.614;14.276;2023-06-14T04:04:13;9.33;;;8.63;;
12314;SDS011;23886;46.614;14.276;2023-06-14T04:06:41;10.80;;;9.53;;
12314;SDS011;23886;46.614;14.276;2023-06-14T04:09:08;11.27;;;10.00;;
12314;SDS011;23886;46.614;14.276;2023-06-14T04:11:35;11.97;;;10.87;;
12314;SDS011;23886;46.614;14.276;2023-06-14T04:14:03;11.03;;;10.13;;
12314;SDS011;23886;46.614;14.276;2023-06-14T04:16:33;10.50;;;9.57;;
12314;SDS011;23886;46.614;14.276;2023-06-14T04:19:03;10.40;;;9.30;;
12314;SDS011;23886;46.614;14.276;2023-06-14T04:21:31;10.73;;;9.50;;
12314;SDS011;23886;46.614;14.276;2023-06-14T04:24:00;9.30;;;8.60;;
12314;SDS011;23886;46.614;14.276;2023-06-14T04:26:28;10.67;;;9.57;;
12314;SDS011;23886;46.614;14.276;2023-06-14T04:28:59;9.50;;;8.63;;
12314;SDS011;23886;46.614;14.276;2023-06-14T04:31:27;11.50;;;10.10;;
12314;SDS011;23886;46.614;14.276;2023-06-14T04:33:56;10.13;;;9.23;;
12314;SDS011;23886;46.614;14.276;2023-06-14T04:36:25;9.70;;;8.80;;
12314;SDS011;23886;46.614;14.276;2023-06-14T04:38:53;9.20;;;8.50;;
12314;SDS011;23886;46.614;14.276;2023-06-14T04:41:21;10.60;;;9.53;;
12314;SDS011;23886;46.614;14.276;2023-06-14T04:43:57;9.70;;;8.77;;
12314;SDS011;23886;46.614;14.276;2023-06-14T04:46:26;9.37;;;8.67;;
12314;SDS011;23886;46.614;14.276;2023-06-14T04:48:53;9.00;;;8.20;;
12314;SDS011;23886;46.614;14.276;2023-06-14T04:51:22;8.63;;;7.93;;
12314;SDS011;23886;46.614;14.276;2023-06-14T04:53:55;8.87;;;8.07;;
12314;SDS011;23886;46.614;14.276;2023-06-14T04:56:23;8.23;;;7.50;;
12314;SDS011;23886;46.614;14.276;2023-06-14T04:58:51;7.73;;;7.13;;
12314;SDS011;23886;46.614;14.276;2023-06-14T05:01:19;7.80;;;7.10;;
12314;SDS011;23886;46.614;14.276;2023-06-14T05:03:48;8.13;;;7.47;;
12314;SDS011;23886;46.614;14.276;2023-06-14T05:06:17;8.13;;;7.47;;
12314;SDS011;23886;46.614;14.276;2023-06-14T05:08:44;8.70;;;7.90;;
12314;SDS011;23886;46.614;14.276;2023-06-14T05:11:11;8.80;;;8.03;;
12314;SDS011;23886;46.614;14.276;2023-06-14T05:13:38;7.97;;;7.37;;
12314;SDS011;23886;46.614;14.276;2023-06-14T05:16:06;9.03;;;8.20;;
12314;SDS011;23886;46.614;14.276;2023-06-14T05:18:33;8.90;;;8.03;;
12314;SDS011;23886;46.614;14.276;2023-06-14T05:21:00;7.97;;;7.33;;
12314;SDS011;23886;46.614;14.276;2023-06-14T05:23:30;7.23;;;6.60;;
12314;SDS011;23886;46.614;14.276;2023-06-14T05:25:57;8.03;;;7.33;;
12314;SDS011;23886;46.614;14.276;2023-06-14T05:28:25;7.57;;;6.90;;
12314;SDS011;23886;46.614;14.276;2023-06-14T05:30:53;8.20;;;7.50;;
12314;SDS011;23886;46.614;14.276;2023-06-14T05:33:20;8.27;;;7.07;;
12314;SDS011;23886;46.614;14.276;2023-06-14T05:35:47;6.93;;;6.23;;
12314;SDS011;23886;46.614;14.276;2023-06-14T05:38:16;7.27;;;6.53;;
12314;SDS011;23886;46.614;14.276;2023-06-14T05:40:44;7.67;;;6.97;;
12314;SDS011;23886;46.614;14.276;2023-06-14T05:43:11;6.60;;;6.10;;
12314;SDS011;23886;46.614;14.276;2023-06-14T05:45:38;6.50;;;6.00;;
12314;SDS011;23886;46.614;14.276;2023-06-14T05:48:05;7.27;;;6.57;;
12314;SDS011;23886;46.614;14.276;2023-06-14T05:50:40;7.40;;;6.70;;
12314;SDS011;23886;46.614;14.276;2023-06-14T05:53:08;7.03;;;6.37;;
12314;SDS011;23886;46.614;14.276;2023-06-14T05:55:36;7.63;;;6.90;;
12314;SDS011;23886;46.614;14.276;2023-06-14T05:58:04;7.80;;;7.10;;
12314;SDS011;23886;46.614;14.276;2023-06-14T06:00:31;7.70;;;6.40;;
12314;SDS011;23886;46.614;14.276;2023-06-14T06:02:58;6.93;;;6.33;;
12314;SDS011;23886;46.614;14.276;2023-06-14T06:05:26;7.87;;;6.97;;
12314;SDS011;23886;46.614;14.276;2023-06-14T06:07:53;10.23;;;7.33;;
12314;SDS011;23886;46.614;14.276;2023-06-14T06:10:20;6.73;;;6.17;;
12314;SDS011;23886;46.614;14.276;2023-06-14T06:12:47;8.90;;;6.90;;
12314;SDS011;23886;46.614;14.276;2023-06-14T06:15:15;7.60;;;6.90;;
12314;SDS011;23886;46.614;14.276;2023-06-14T06:17:43;7.00;;;6.40;;
12314;SDS011;23886;46.614;14.276;2023-06-14T06:20:11;7.97;;;7.20;;
12314;SDS011;23886;46.614;14.276;2023-06-14T06:22:38;6.80;;;5.63;;
12314;SDS011;23886;46.614;14.276;2023-06-14T06:25:05;6.80;;;6.03;;
12314;SDS011;23886;46.614;14.276;2023-06-14T06:27:33;6.87;;;6.27;;
12314;SDS011;23886;46.614;14.276;2023-06-14T06:30:03;7.23;;;6.33;;
12314;SDS011;23886;46.614;14.276;2023-06-14T06:32:32;6.70;;;6.10;;
12314;SDS011;23886;46.614;14.276;2023-06-14T06:34:59;7.03;;;6.33;;
12314;SDS011;23886;46.614;14.276;2023-06-14T06:37:26;7.57;;;6.07;;
12314;SDS011;23886;46.614;14.276;2023-06-14T06:39:53;7.03;;;6.33;;
12314;SDS011;23886;46.614;14.276;2023-06-14T06:42:20;7.03;;;5.90;;
12314;SDS011;23886;46.614;14.276;2023-06-14T06:44:47;7.80;;;6.23;;
12314;SDS011;23886;46.614;14.276;2023-06-14T06:47:14;7.80;;;6.40;;
12314;SDS011;23886;46.614;14.276;2023-06-14T06:49:42;7.10;;;6.40;;
12314;SDS011;23886;46.614;14.276;2023-06-14T06:52:09;7.40;;;6.60;;
12314;SDS011;23886;46.614;14.276;2023-06-14T06:54:36;7.67;;;6.97;;
12314;SDS011;23886;46.614;14.276;2023-06-14T06:57:03;7.17;;;6.40;;
12314;SDS011;23886;46.614;14.276;2023-06-14T06:59:31;6.60;;;6.00;;
12314;SDS011;23886;46.614;14.276;2023-06-14T07:01:58;6.83;;;6.23;;
12314;SDS011;23886;46.614;14.276;2023-06-14T07:04:25;8.53;;;6.07;;
12314;SDS011;23886;46.614;14.276;2023-06-14T07:06:54;7.03;;;5.70;;
12314;SDS011;23886;46.614;14.276;2023-06-14T07:09:21;6.40;;;5.80;;
12314;SDS011;23886;46.614;14.276;2023-06-14T07:11:49;7.90;;;6.43;;
12314;SDS011;23886;46.614;14.276;2023-06-14T07:14:17;6.57;;;5.97;;
12314;SDS011;23886;46.614;14.276;2023-06-14T07:16:44;8.23;;;6.50;;
12314;SDS011;23886;46.614;14.276;2023-06-14T07:19:11;8.70;;;7.23;;
12314;SDS011;23886;46.614;14.276;2023-06-14T07:21:38;6.80;;;6.17;;
12314;SDS011;23886;46.614;14.276;2023-06-14T07:24:07;7.33;;;6.20;;
12314;SDS011;23886;46.614;14.276;2023-06-14T07:26:34;6.80;;;6.20;;
12314;SDS011;23886;46.614;14.276;2023-06-14T07:29:01;6.50;;;6.00;;
12314;SDS011;23886;46.614;14.276;2023-06-14T07:31:28;7.23;;;6.53;;
12314;SDS011;23886;46.614;14.276;2023-06-14T07:33:55;6.87;;;6.27;;
12314;SDS011;23886;46.614;14.276;2023-06-14T07:36:22;6.63;;;6.00;;
12314;SDS011;23886;46.614;14.276;2023-06-14T07:38:50;9.17;;;5.90;;
12314;SDS011;23886;46.614;14.276;2023-06-14T07:41:18;6.80;;;6.20;;
12314;SDS011;23886;46.614;14.276;2023-06-14T07:43:45;6.97;;;6.37;;
12314;SDS011;23886;46.614;14.276;2023-06-14T07:46:12;6.20;;;5.60;;
12314;SDS011;23886;46.614;14.276;2023-06-14T07:48:39;6.33;;;5.73;;
12314;SDS011;23886;46.614;14.276;2023-06-14T07:51:07;7.90;;;6.10;;
12314;SDS011;23886;46.614;14.276;2023-06-14T07:53:53;8.13;;;6.60;;
12314;SDS011;23886;46.614;14.276;2023-06-14T07:56:21;8.60;;;6.90;;
12314;SDS011;23886;46.614;14.276;2023-06-14T07:58:48;6.83;;;5.93;;
12314;SDS011;23886;46.614;14.276;2023-06-14T08:01:15;6.80;;;6.20;;
12314;SDS011;23886;46.614;14.276;2023-06-14T08:03:58;6.70;;;6.07;;
12314;SDS011;23886;46.614;14.276;2023-06-14T08:08:58;7.03;;;6.03;;
12314;SDS011;23886;46.614;14.276;2023-06-14T08:11:27;6.60;;;5.53;;
12314;SDS011;23886;46.614;14.276;2023-06-14T08:13:54;6.07;;;5.47;;
12314;SDS011;23886;46.614;14.276;2023-06-14T08:16:21;6.77;;;5.97;;
12314;SDS011;23886;46.614;14.276;2023-06-14T08:18:48;6.40;;;5.80;;
12314;SDS011;23886;46.614;14.276;2023-06-14T08:21:15;6.83;;;6.23;;
12314;SDS011;23886;46.614;14.276;2023-06-14T08:23:43;7.33;;;6.73;;
12314;SDS011;23886;46.614;14.276;2023-06-14T08:26:10;6.77;;;6.10;;
12314;SDS011;23886;46.614;14.276;2023-06-14T08:28:38;6.43;;;5.80;;
12314;SDS011;23886;46.614;14.276;2023-06-14T08:31:05;7.30;;;6.10;;
12314;SDS011;23886;46.614;14.276;2023-06-14T08:33:32;6.77;;;6.03;;
12314;SDS011;23886;46.614;14.276;2023-06-14T08:35:59;6.03;;;5.53;;
12314;SDS011;23886;46.614;14.276;2023-06-14T08:38:26;5.70;;;5.20;;
12314;SDS011;23886;46.614;14.276;2023-06-14T08:40:56;6.83;;;5.33;;
12314;SDS011;23886;46.614;14.276;2023-06-14T08:43:24;6.60;;;5.83;;
12314;SDS011;23886;46.614;14.276;2023-06-14T08:45:53;6.70;;;5.60;;
12314;SDS011;23886;46.614;14.276;2023-06-14T08:48:25;7.23;;;6.17;;
12314;SDS011;23886;46.614;14.276;2023-06-14T08:50:53;5.63;;;5.10;;
12314;SDS011;23886;46.614;14.276;2023-06-14T08:53:27;6.57;;;5.87;;
12314;SDS011;23886;46.614;14.276;2023-06-14T08:55:57;9.03;;;5.70;;
12314;SDS011;23886;46.614;14.276;2023-06-14T08:58:26;5.90;;;5.37;;
12314;SDS011;23886;46.614;14.276;2023-06-14T09:00:56;5.20;;;4.77;;
12314;SDS011;23886;46.614;14.276;2023-06-14T09:03:24;5.97;;;5.10;;
12314;SDS011;23886;46.614;14.276;2023-06-14T09:05:55;7.43;;;5.43;;
12314;SDS011;23886;46.614;14.276;2023-06-14T09:08:24;6.07;;;5.53;;
12314;SDS011;23886;46.614;14.276;2023-06-14T09:10:52;5.73;;;4.47;;
12314;SDS011;23886;46.614;14.276;2023-06-14T09:13:19;6.90;;;4.90;;
12314;SDS011;23886;46.614;14.276;2023-06-14T09:15:46;6.73;;;5.00;;
12314;SDS011;23886;46.614;14.276;2023-06-14T09:18:14;7.43;;;4.50;;
12314;SDS011;23886;46.614;14.276;2023-06-14T09:20:41;5.13;;;4.50;;
12314;SDS011;23886;46.614;14.276;2023-06-14T09:23:09;5.83;;;4.40;;
12314;SDS011;23886;46.614;14.276;2023-06-14T09:25:45;6.50;;;4.93;;
12314;SDS011;23886;46.614;14.276;2023-06-14T09:28:12;5.17;;;4.70;;
12314;SDS011;23886;46.614;14.276;2023-06-14T09:30:39;7.63;;;4.67;;
12314;SDS011;23886;46.614;14.276;2023-06-14T09:33:06;7.10;;;4.70;;
12314;SDS011;23886;46.614;14.276;2023-06-14T09:35:35;5.40;;;4.90;;
12314;SDS011;23886;46.614;14.276;2023-06-14T09:38:04;6.07;;;4.63;;
12314;SDS011;23886;46.614;14.276;2023-06-14T09:40:33;5.03;;;4.57;;
12314;SDS011;23886;46.614;14.276;2023-06-14T09:43:06;5.07;;;4.57;;
12314;SDS011;23886;46.614;14.276;2023-06-14T09:45:35;5.93;;;4.33;;
12314;SDS011;23886;46.614;14.276;2023-06-14T09:48:04;5.03;;;4.47;;
12314;SDS011;23886;46.614;14.276;2023-06-14T09:50:32;5.17;;;4.20;;
12314;SDS011;23886;46.614;14.276;2023-06-14T09:53:02;4.87;;;4.10;;
12314;SDS011;23886;46.614;14.276;2023-06-14T09:55:33;4.90;;;4.50;;
12314;SDS011;23886;46.614;14.276;2023-06-14T09:58:03;4.90;;;4.00;;
12314;SDS011;23886;46.614;14.276;2023-06-14T10:00:32;7.13;;;4.57;;
12314;SDS011;23886;46.614;14.276;2023-06-14T10:03:00;9.30;;;4.70;;
12314;SDS011;23886;46.614;14.276;2023-06-14T10:05:32;4.70;;;4.20;;
12314;SDS011;23886;46.614;14.276;2023-06-14T10:08:04;7.10;;;4.70;;
12314;SDS011;23886;46.614;14.276;2023-06-14T10:10:40;4.77;;;4.37;;
12314;SDS011;23886;46.614;14.276;2023-06-14T10:13:08;5.33;;;4.37;;
12314;SDS011;23886;46.614;14.276;2023-06-14T10:15:38;8.43;;;5.10;;
12314;SDS011;23886;46.614;14.276;2023-06-14T10:18:14;4.80;;;4.40;;
12314;SDS011;23886;46.614;14.276;2023-06-14T10:20:53;4.80;;;4.17;;
12314;SDS011;23886;46.614;14.276;2023-06-14T10:23:30;5.10;;;4.60;;
12314;SDS011;23886;46.614;14.276;2023-06-14T10:26:01;6.63;;;4.67;;
12314;SDS011;23886;46.614;14.276;2023-06-14T10:28:28;4.67;;;4.27;;
12314;SDS011;23886;46.614;14.276;2023-06-14T10:31:03;4.83;;;4.40;;
12314;SDS011;23886;46.614;14.276;2023-06-14T10:33:31;6.33;;;4.77;;
12314;SDS011;23886;46.614;14.276;2023-06-14T10:36:10;6.53;;;4.70;;
12314;SDS011;23886;46.614;14.276;2023-06-14T10:39:04;7.30;;;4.30;;
12314;SDS011;23886;46.614;14.276;2023-06-14T10:41:34;5.20;;;4.60;;
12314;SDS011;23886;46.614;14.276;2023-06-14T10:47:06;5.17;;;4.40;;
12314;SDS011;23886;46.614;14.276;2023-06-14T10:49:41;6.77;;;4.47;;
12314;SDS011;23886;46.614;14.276;2023-06-14T10:52:13;5.67;;;4.13;;
12314;SDS011;23886;46.614;14.276;2023-06-14T10:55:06;5.83;;;4.43;;
12314;SDS011;23886;46.614;14.276;2023-06-14T10:57:40;5.20;;;4.37;;
12314;SDS011;23886;46.614;14.276;2023-06-14T11:00:11;10.87;;;4.80;;
12314;SDS011;23886;46.614;14.276;2023-06-14T11:05:57;5.63;;;4.60;;
12314;SDS011;23886;46.614;14.276;2023-06-14T11:11:38;4.93;;;4.40;;
12314;SDS011;23886;46.614;14.276;2023-06-14T11:14:09;4.73;;;4.27;;
12314;SDS011;23886;46.614;14.276;2023-06-14T11:16:37;4.70;;;3.93;;
12314;SDS011;23886;46.614;14.276;2023-06-14T11:19:04;4.87;;;4.17;;
12314;SDS011;23886;46.614;14.276;2023-06-14T11:21:32;6.03;;;4.80;;
12314;SDS011;23886;46.614;14.276;2023-06-14T11:23:59;4.77;;;4.37;;
12314;SDS011;23886;46.614;14.276;2023-06-14T11:26:26;5.07;;;4.57;;
12314;SDS011;23886;46.614;14.276;2023-06-14T11:28:58;5.03;;;4.50;;
12314;SDS011;23886;46.614;14.276;2023-06-14T11:31:26;4.90;;;4.40;;
12314;SDS011;23886;46.614;14.276;2023-06-14T11:33:54;5.60;;;4.73;;
12314;SDS011;23886;46.614;14.276;2023-06-14T11:36:22;4.97;;;4.40;;
12314;SDS011;23886;46.614;14.276;2023-06-14T11:38:57;4.83;;;4.40;;
12314;SDS011;23886;46.614;14.276;2023-06-14T11:41:25;5.00;;;4.60;;
12314;SDS011;23886;46.614;14.276;2023-06-14T11:43:59;4.30;;;3.90;;
12314;SDS011;23886;46.614;14.276;2023-06-14T11:46:26;4.60;;;4.20;;
12314;SDS011;23886;46.614;14.276;2023-06-14T11:48:53;4.53;;;4.13;;
12314;SDS011;23886;46.614;14.276;2023-06-14T11:51:21;4.63;;;4.10;;
12314;SDS011;23886;46.614;14.276;2023-06-14T11:53:48;5.57;;;4.30;;
12314;SDS011;23886;46.614;14.276;2023-06-14T11:56:15;5.27;;;4.77;;
12314;SDS011;23886;46.614;14.276;2023-06-14T11:58:43;5.97;;;4.07;;
12314;SDS011;23886;46.614;14.276;2023-06-14T12:01:15;5.15;;;4.28;;
12314;SDS011;23886;46.614;14.276;2023-06-14T12:03:47;4.60;;;4.10;;
12314;SDS011;23886;46.614;14.276;2023-06-14T12:06:15;4.45;;;4.05;;
12314;SDS011;23886;46.614;14.276;2023-06-14T12:08:43;4.93;;;4.43;;
12314;SDS011;23886;46.614;14.276;2023-06-14T12:11:14;4.23;;;3.93;;
12314;SDS011;23886;46.614;14.276;2023-06-14T12:13:42;4.70;;;4.20;;
12314;SDS011;23886;46.614;14.276;2023-06-14T12:16:09;4.50;;;4.10;;
12314;SDS011;23886;46.614;14.276;2023-06-14T12:18:39;4.47;;;3.50;;
12314;SDS011;23886;46.614;14.276;2023-06-14T12:21:08;4.05;;;3.65;;
12314;SDS011;23886;46.614;14.276;2023-06-14T12:23:43;4.13;;;3.67;;
12314;SDS011;23886;46.614;14.276;2023-06-14T12:26:12;4.10;;;3.75;;
12314;SDS011;23886;46.614;14.276;2023-06-14T12:28:40;3.92;;;3.63;;
12314;SDS011;23886;46.614;14.276;2023-06-14T12:31:08;4.40;;;3.38;;
12314;SDS011;23886;46.614;14.276;2023-06-14T12:33:35;3.90;;;3.60;;
12314;SDS011;23886;46.614;14.276;2023-06-14T12:36:04;3.80;;;3.50;;
12314;SDS011;23886;46.614;14.276;2023-06-14T12:38:33;3.85;;;3.42;;
12314;SDS011;23886;46.614;14.276;2023-06-14T12:41:00;4.47;;;4.00;;
12314;SDS011;23886;46.614;14.276;2023-06-14T12:43:28;8.10;;;4.20;;
12314;SDS011;23886;46.614;14.276;2023-06-14T12:45:55;3.88;;;3.45;;
12314;SDS011;23886;46.614;14.276;2023-06-14T12:48:22;4.25;;;3.78;;
12314;SDS011;23886;46.614;14.276;2023-06-14T12:50:49;4.65;;;3.95;;
12314;SDS011;23886;46.614;14.276;2023-06-14T12:53:17;4.10;;;3.80;;
12314;SDS011;23886;46.614;14.276;2023-06-14T12:55:45;4.63;;;3.95;;
12314;SDS011;23886;46.614;14.276;2023-06-14T12:58:12;3.95;;;3.65;;
12314;SDS011;23886;46.614;14.276;2023-06-14T13:00:39;4.20;;;3.80;;
12314;SDS011;23886;46.614;14.276;2023-06-14T13:03:06;4.40;;;4.00;;
12314;SDS011;23886;46.614;14.276;2023-06-14T13:05:33;5.60;;;4.15;;
12314;SDS011;23886;46.614;14.276;2023-06-14T13:08:00;5.65;;;3.72;;
12314;SDS011;23886;46.614;14.276;2023-06-14T13:10:29;3.67;;;3.38;;
12314;SDS011;23886;46.614;14.276;2023-06-14T13:12:56;3.95;;;3.65;;
12314;SDS011;23886;46.614;14.276;2023-06-14T13:15:25;4.32;;;3.92;;
12314;SDS011;23886;46.614;14.276;2023-06-14T13:17:52;3.92;;;3.40;;
12314;SDS011;23886;46.614;14.276;2023-06-14T13:20:20;4.22;;;3.72;;
12314;SDS011;23886;46.614;14.276;2023-06-14T13:22:47;3.58;;;3.28;;
12314;SDS011;23886;46.614;14.276;2023-06-14T13:25:14;5.05;;;3.38;;
12314;SDS011;23886;46.614;14.276;2023-06-14T13:27:43;4.07;;;3.10;;
12314;SDS011;23886;46.614;14.276;2023-06-14T13:30:10;3.85;;;3.45;;
12314;SDS011;23886;46.614;14.276;2023-06-14T13:32:38;3.70;;;3.40;;
12314;SDS011;23886;46.614;14.276;2023-06-14T13:35:05;4.07;;;3.47;;
12314;SDS011;23886;46.614;14.276;2023-06-14T13:37:33;4.05;;;3.55;;
12314;SDS011;23886;46.614;14.276;2023-06-14T13:39:59;3.70;;;3.35;;
12314;SDS011;23886;46.614;14.276;2023-06-14T13:42:27;4.15;;;3.28;;
12314;SDS011;23886;46.614;14.276;2023-06-14T13:44:57;4.30;;;3.30;;
12314;SDS011;23886;46.614;14.276;2023-06-14T13:47:24;3.50;;;3.20;;
12314;SDS011;23886;46.614;14.276;2023-06-14T13:49:52;3.70;;;3.17;;
12314;SDS011;23886;46.614;14.276;2023-06-14T13:52:18;3.45;;;3.13;;
12314;SDS011;23886;46.614;14.276;2023-06-14T13:54:45;5.18;;;3.33;;
12314;SDS011;23886;46.614;14.276;2023-06-14T13:57:12;3.83;;;3.20;;
12314;SDS011;23886;46.614;14.276;2023-06-14T13:59:40;4.78;;;2.92;;
12314;SDS011;23886;46.614;14.276;2023-06-14T14:02:10;3.28;;;2.97;;
12314;SDS011;23886;46.614;14.276;2023-06-14T14:04:38;3.90;;;3.35;;
12314;SDS011;23886;46.614;14.276;2023-06-14T14:07:06;3.92;;;3.22;;
12314;SDS011;23886;46.614;14.276;2023-06-14T14:09:33;3.45;;;2.70;;
12314;SDS011;23886;46.614;14.276;2023-06-14T14:12:01;3.05;;;2.60;;
12314;SDS011;23886;46.614;14.276;2023-06-14T14:14:29;2.90;;;2.70;;
12314;SDS011;23886;46.614;14.276;2023-06-14T14:16:57;3.47;;;2.80;;
12314;SDS011;23886;46.614;14.276;2023-06-14T14:19:25;3.65;;;2.60;;
12314;SDS011;23886;46.614;14.276;2023-06-14T14:21:52;3.47;;;2.60;;
12314;SDS011;23886;46.614;14.276;2023-06-14T14:24:19;3.33;;;3.03;;
12314;SDS011;23886;46.614;14.276;2023-06-14T14:26:46;3.60;;;3.30;;
12314;SDS011;23886;46.614;14.276;2023-06-14T14:29:14;3.95;;;3.38;;
12314;SDS011;23886;46.614;14.276;2023-06-14T14:31:42;4.03;;;3.15;;
12314;SDS011;23886;46.614;14.276;2023-06-14T14:34:09;4.72;;;3.55;;
12314;SDS011;23886;46.614;14.276;2023-06-14T14:36:37;3.67;;;3.38;;
12314;SDS011;23886;46.614;14.276;2023-06-14T14:39:07;3.83;;;2.80;;
12314;SDS011;23886;46.614;14.276;2023-06-14T14:41:34;3.60;;;3.30;;
12314;SDS011;23886;46.614;14.276;2023-06-14T14:44:02;4.15;;;2.90;;
12314;SDS011;23886;46.614;14.276;2023-06-14T14:46:30;5.95;;;3.22;;
12314;SDS011;23886;46.614;14.276;2023-06-14T14:49:00;3.92;;;3.30;;
12314;SDS011;23886;46.614;14.276;2023-06-14T14:51:27;3.42;;;3.15;;
12314;SDS011;23886;46.614;14.276;2023-06-14T14:53:56;3.72;;;3.35;;